createdAt,value
2018-11-05T00:00:17.884Z,7.90
2018-11-05T00:01:17.851Z,7.60
2018-11-05T00:02:17.835Z,8.40
2018-11-05T00:03:17.809Z,8.20
2018-11-05T00:04:17.771Z,7.90
2018-11-05T00:05:17.754Z,8.50
2018-11-05T00:06:17.734Z,8.00
2018-11-05T00:07:17.702Z,9.40
2018-11-05T00:08:17.673Z,9.50
2018-11-05T00:09:17.668Z,9.70
2018-11-05T00:10:17.644Z,9.40
2018-11-05T00:11:17.628Z,9.70
2018-11-05T00:12:17.598Z,10.00
2018-11-05T00:13:17.572Z,10.50
2018-11-05T00:14:17.550Z,9.80
2018-11-05T00:15:17.525Z,9.80
2018-11-05T00:16:17.511Z,9.50
2018-11-05T00:17:17.483Z,10.10
2018-11-05T00:18:17.457Z,10.00
2018-11-05T00:19:17.431Z,9.20
2018-11-05T00:20:17.409Z,8.80
2018-11-05T00:21:17.385Z,8.40
2018-11-05T00:22:17.366Z,8.90
2018-11-05T00:23:17.338Z,7.80
2018-11-05T00:24:17.306Z,7.80
2018-11-05T00:25:17.274Z,7.50
2018-11-05T00:26:17.255Z,6.70
2018-11-05T00:27:17.252Z,6.90
2018-11-05T00:28:17.223Z,7.50
2018-11-05T00:29:17.197Z,8.30
2018-11-05T00:30:17.172Z,8.70
2018-11-05T00:31:17.151Z,8.40
2018-11-05T00:32:17.133Z,8.10
2018-11-05T00:33:17.105Z,8.60
2018-11-05T00:34:17.080Z,7.70
2018-11-05T00:35:17.058Z,7.70
2018-11-05T00:36:17.034Z,7.30
2018-11-05T00:37:17.017Z,7.30
2018-11-05T00:38:16.990Z,6.80
2018-11-05T00:39:16.965Z,7.80
2018-11-05T00:40:16.940Z,8.10
2018-11-05T00:41:16.918Z,8.50
2018-11-05T00:42:16.879Z,7.60
2018-11-05T00:43:16.873Z,7.30
2018-11-05T00:44:16.849Z,7.40
2018-11-05T00:45:16.830Z,6.80
2018-11-05T00:46:16.802Z,8.20
2018-11-05T00:47:16.782Z,7.00
2018-11-05T00:48:16.743Z,7.10
2018-11-05T00:49:16.731Z,7.40
2018-11-05T00:50:16.691Z,8.30
2018-11-05T00:51:16.722Z,7.60
2018-11-05T00:52:16.667Z,6.50
2018-11-05T00:53:16.627Z,7.60
2018-11-05T00:54:16.616Z,6.40
2018-11-05T00:55:16.589Z,7.80
2018-11-05T00:56:16.565Z,6.80
2018-11-05T00:57:16.540Z,7.50
2018-11-05T00:58:16.520Z,7.50
2018-11-05T00:59:16.500Z,7.80
2018-11-05T01:00:16.463Z,6.70
2018-11-05T01:01:16.437Z,7.90
2018-11-05T01:02:16.428Z,6.40
2018-11-05T01:03:16.404Z,7.70
2018-11-05T01:04:16.387Z,7.40
2018-11-05T01:05:16.359Z,7.70
2018-11-05T01:06:16.316Z,7.60
2018-11-05T01:07:16.303Z,7.40
2018-11-05T01:08:16.282Z,7.50
2018-11-05T01:09:16.245Z,7.90
2018-11-05T01:10:16.225Z,7.80
2018-11-05T01:11:16.205Z,7.30
2018-11-05T01:12:16.191Z,7.70
2018-11-05T01:13:16.158Z,7.90
2018-11-05T01:14:16.142Z,8.00
2018-11-05T01:15:16.119Z,7.70
2018-11-05T01:16:16.099Z,8.30
2018-11-05T01:17:16.072Z,7.60
2018-11-05T01:18:16.049Z,8.20
2018-11-05T01:19:16.027Z,8.10
2018-11-05T01:20:16.005Z,8.40
2018-11-05T01:21:15.984Z,7.50
2018-11-05T01:22:15.959Z,8.40
2018-11-05T01:23:15.937Z,8.30
2018-11-05T01:24:15.908Z,7.90
2018-11-05T01:25:15.888Z,8.20
2018-11-05T01:26:15.861Z,7.40
2018-11-05T01:27:15.824Z,8.10
2018-11-05T01:28:15.811Z,7.90
2018-11-05T01:29:15.776Z,8.00
2018-11-05T01:30:15.756Z,7.70
2018-11-05T01:31:15.732Z,7.60
2018-11-05T01:32:15.720Z,7.40
2018-11-05T01:33:15.698Z,7.40
2018-11-05T01:34:15.669Z,7.60
2018-11-05T01:35:15.657Z,7.40
2018-11-05T01:36:15.611Z,7.10
2018-11-05T01:37:15.650Z,5.90
2018-11-05T01:38:15.575Z,7.00
2018-11-05T01:39:15.557Z,6.70
2018-11-05T01:40:15.532Z,6.70
2018-11-05T01:41:15.517Z,6.40
2018-11-05T01:42:15.493Z,6.50
2018-11-05T01:43:15.465Z,5.40
2018-11-05T01:44:15.441Z,6.80
2018-11-05T01:45:15.412Z,6.20
2018-11-05T01:46:15.390Z,6.30
2018-11-05T01:47:15.365Z,6.40
2018-11-05T01:48:15.343Z,6.70
2018-11-05T01:49:15.322Z,6.50
2018-11-05T01:50:15.297Z,6.00
2018-11-05T01:51:15.280Z,5.50
2018-11-05T01:52:15.252Z,6.00
2018-11-05T01:53:15.218Z,6.80
2018-11-05T01:54:15.191Z,5.90
2018-11-05T01:55:15.181Z,6.10
2018-11-05T01:56:15.158Z,7.50
2018-11-05T01:57:15.133Z,6.60
2018-11-05T01:58:15.106Z,6.80
2018-11-05T01:59:15.089Z,6.40
2018-11-05T02:00:15.137Z,5.90
2018-11-05T02:01:15.117Z,6.10
2018-11-05T02:03:58.719Z,6.30
2018-11-05T02:04:58.694Z,6.70
2018-11-05T02:05:58.660Z,6.50
2018-11-05T02:06:58.655Z,6.00
2018-11-05T02:07:58.634Z,7.20
2018-11-05T02:08:58.606Z,5.70
2018-11-05T02:09:58.585Z,6.30
2018-11-05T02:10:58.562Z,6.50
2018-11-05T02:11:58.519Z,6.60
2018-11-05T02:12:58.497Z,6.30
2018-11-05T02:13:58.490Z,6.30
2018-11-05T02:14:58.468Z,6.50
2018-11-05T02:15:58.449Z,6.80
2018-11-05T02:16:58.418Z,6.50
2018-11-05T02:17:58.393Z,6.40
2018-11-05T02:18:58.371Z,7.00
2018-11-05T02:19:58.335Z,7.40
2018-11-05T02:20:58.323Z,7.00
2018-11-05T02:21:58.308Z,6.80
2018-11-05T02:22:58.323Z,6.40
2018-11-05T02:23:58.250Z,7.70
2018-11-05T02:24:58.228Z,7.20
2018-11-05T02:25:58.199Z,7.50
2018-11-05T02:26:58.201Z,7.70
2018-11-05T02:27:58.155Z,6.70
2018-11-05T02:28:58.135Z,6.90
2018-11-05T02:29:58.117Z,7.30
2018-11-05T02:30:58.088Z,7.10
2018-11-05T02:31:58.064Z,7.00
2018-11-05T02:32:58.044Z,7.20
2018-11-05T02:33:58.071Z,7.00
2018-11-05T02:34:57.990Z,6.90
2018-11-05T02:35:57.973Z,6.80
2018-11-05T02:36:57.953Z,6.80
2018-11-05T02:37:57.922Z,7.30
2018-11-05T02:38:57.901Z,6.70
2018-11-05T02:39:57.876Z,7.10
2018-11-05T02:40:57.839Z,6.50
2018-11-05T02:41:57.829Z,6.70
2018-11-05T02:42:57.810Z,6.80
2018-11-05T02:43:57.788Z,7.00
2018-11-05T02:44:57.766Z,6.90
2018-11-05T02:45:57.740Z,7.30
2018-11-05T02:46:57.715Z,6.90
2018-11-05T02:47:57.697Z,7.00
2018-11-05T02:48:57.666Z,6.70
2018-11-05T02:49:57.646Z,6.40
2018-11-05T02:50:57.623Z,7.80
2018-11-05T02:51:57.595Z,7.80
2018-11-05T02:52:57.577Z,7.80
2018-11-05T02:53:57.554Z,7.10
2018-11-05T02:54:57.532Z,7.60
2018-11-05T02:55:57.500Z,7.50
2018-11-05T02:56:57.485Z,7.60
2018-11-05T02:57:57.455Z,9.00
2018-11-05T02:58:57.438Z,9.80
2018-11-05T02:59:57.411Z,9.60
2018-11-05T03:00:57.383Z,9.40
2018-11-05T03:01:57.357Z,9.90
2018-11-05T03:02:57.439Z,9.00
2018-11-05T03:03:57.313Z,10.50
2018-11-05T03:04:57.289Z,9.90
2018-11-05T03:05:57.265Z,11.30
2018-11-05T03:06:57.250Z,10.90
2018-11-05T03:07:57.228Z,11.80
2018-11-05T03:08:57.202Z,11.00
2018-11-05T03:09:57.164Z,10.90
2018-11-05T03:10:57.152Z,11.50
2018-11-05T03:11:57.127Z,11.30
2018-11-05T03:12:57.108Z,11.80
2018-11-05T03:13:57.081Z,10.50
2018-11-05T03:14:57.048Z,10.80
2018-11-05T03:15:57.023Z,13.30
2018-11-05T03:16:57.005Z,13.10
2018-11-05T03:17:56.987Z,13.60
2018-11-05T03:18:56.944Z,12.50
2018-11-05T03:19:56.936Z,12.90
2018-11-05T03:20:56.917Z,13.20
2018-11-05T03:21:56.893Z,12.90
2018-11-05T03:22:56.871Z,13.80
2018-11-05T03:23:56.844Z,13.40
2018-11-05T03:24:56.818Z,13.70
2018-11-05T03:25:56.781Z,14.30
2018-11-05T03:26:56.773Z,15.50
2018-11-05T03:27:56.744Z,14.60
2018-11-05T03:28:56.723Z,15.20
2018-11-05T03:29:56.701Z,13.10
2018-11-05T03:30:56.668Z,15.80
2018-11-05T03:31:56.650Z,15.80
2018-11-05T03:32:56.631Z,15.00
2018-11-05T03:33:56.602Z,14.70
2018-11-05T03:34:56.584Z,15.10
2018-11-05T03:35:56.728Z,16.00
2018-11-05T03:36:56.540Z,15.00
2018-11-05T03:37:56.509Z,16.70
2018-11-05T03:38:56.487Z,15.30
2018-11-05T03:39:56.443Z,14.50
2018-11-05T03:40:56.439Z,14.40
2018-11-05T03:41:56.415Z,15.50
2018-11-05T03:42:56.387Z,13.00
2018-11-05T03:43:56.364Z,14.50
2018-11-05T03:44:56.323Z,14.80
2018-11-05T03:45:56.316Z,13.70
2018-11-05T03:46:56.292Z,13.60
2018-11-05T03:47:56.262Z,13.50
2018-11-05T03:48:56.274Z,14.10
2018-11-05T03:49:56.297Z,14.50
2018-11-05T03:50:56.266Z,14.30
2018-11-05T03:51:56.239Z,13.90
2018-11-05T03:52:56.140Z,14.30
2018-11-05T03:53:56.123Z,14.70
2018-11-05T03:54:56.099Z,13.20
2018-11-05T03:55:56.138Z,12.50
2018-11-05T03:56:56.043Z,11.50
2018-11-05T03:57:56.018Z,12.00
2018-11-05T03:58:56.067Z,11.20
2018-11-05T03:59:56.040Z,12.20
2018-11-05T04:00:56.024Z,10.90
2018-11-05T04:01:55.995Z,10.70
2018-11-05T04:02:55.969Z,10.00
2018-11-05T04:03:55.948Z,10.80
2018-11-05T04:04:55.927Z,10.60
2018-11-05T04:05:55.900Z,10.60
2018-11-05T04:06:55.872Z,9.80
2018-11-05T04:07:55.851Z,10.80
2018-11-05T04:08:55.835Z,10.40
2018-11-05T04:09:55.799Z,10.00
2018-11-05T04:10:55.773Z,9.70
2018-11-05T04:11:55.755Z,9.80
2018-11-05T04:12:55.728Z,10.00
2018-11-05T04:13:55.708Z,9.60
2018-11-05T04:14:55.683Z,9.70
2018-11-05T04:15:55.765Z,10.20
2018-11-05T04:16:55.641Z,9.90
2018-11-05T04:17:55.611Z,9.00
2018-11-05T04:18:55.572Z,9.50
2018-11-05T04:19:55.563Z,9.10
2018-11-05T04:20:55.534Z,8.30
2018-11-05T04:21:55.504Z,8.70
2018-11-05T04:22:55.486Z,8.60
2018-11-05T04:23:55.467Z,8.80
2018-11-05T04:24:55.442Z,9.00
2018-11-05T04:25:55.430Z,8.40
2018-11-05T04:26:55.379Z,6.90
2018-11-05T04:27:55.471Z,7.90
2018-11-05T04:28:55.332Z,7.90
2018-11-05T04:29:55.323Z,7.40
2018-11-05T04:30:55.297Z,8.20
2018-11-05T04:31:55.282Z,7.70
2018-11-05T04:32:55.252Z,7.10
2018-11-05T04:33:55.225Z,7.00
2018-11-05T04:35:07.944Z,7.50
2018-11-05T04:44:33.626Z,6.70
2018-11-05T04:45:33.609Z,6.60
2018-11-05T04:46:33.596Z,6.50
2018-11-05T04:47:33.620Z,6.00
2018-11-05T04:48:33.595Z,6.90
2018-11-05T04:49:33.571Z,6.10
2018-11-05T04:50:33.551Z,5.90
2018-11-05T04:51:33.528Z,6.30
2018-11-05T04:52:33.485Z,6.30
2018-11-05T04:53:33.461Z,6.00
2018-11-05T04:55:06.659Z,6.30
2018-11-05T05:00:44.491Z,5.90
2018-11-05T05:01:44.507Z,6.30
2018-11-05T05:02:44.472Z,5.50
2018-11-05T05:03:44.464Z,5.60
2018-11-05T05:05:17.648Z,6.60
2018-11-05T05:05:44.420Z,6.30
2018-11-05T05:06:44.398Z,5.20
2018-11-05T05:07:44.355Z,5.50
2018-11-05T05:08:44.330Z,5.70
2018-11-05T05:09:44.328Z,5.30
2018-11-05T05:10:44.296Z,5.60
2018-11-05T05:11:44.266Z,5.80
2018-11-05T05:12:44.250Z,5.50
2018-11-05T05:13:44.223Z,5.60
2018-11-05T05:14:44.200Z,5.50
2018-11-05T05:15:44.167Z,4.40
2018-11-05T05:16:44.155Z,5.00
2018-11-05T05:17:44.131Z,4.60
2018-11-05T05:18:44.110Z,4.60
2018-11-05T05:19:44.080Z,5.10
2018-11-05T05:20:44.060Z,4.80
2018-11-05T05:21:44.025Z,4.50
2018-11-05T05:22:44.225Z,4.50
2018-11-05T05:23:43.984Z,4.70
2018-11-05T05:24:43.964Z,4.70
2018-11-05T05:25:43.946Z,5.30
2018-11-05T05:26:43.919Z,4.80
2018-11-05T05:27:43.893Z,5.20
2018-11-05T05:28:43.873Z,5.00
2018-11-05T05:29:43.845Z,5.00
2018-11-05T05:30:43.819Z,5.20
2018-11-05T05:31:43.800Z,5.70
2018-11-05T05:41:22.270Z,6.60
2018-11-05T05:42:22.188Z,6.40
2018-11-05T05:43:22.169Z,8.00
2018-11-05T05:44:22.149Z,6.90
2018-11-05T05:45:22.121Z,7.50
2018-11-05T05:46:22.102Z,7.30
2018-11-05T05:47:22.081Z,7.30
2018-11-05T05:48:22.056Z,7.10
2018-11-05T05:49:22.027Z,7.20
2018-11-05T05:50:22.011Z,7.80
2018-11-05T05:51:21.982Z,7.10
2018-11-05T05:52:21.958Z,7.80
2018-11-05T05:53:21.937Z,6.80
2018-11-05T05:54:21.912Z,7.80
2018-11-05T05:55:21.888Z,8.10
2018-11-05T05:56:21.860Z,7.50
2018-11-05T05:57:21.834Z,8.00
2018-11-05T05:58:21.823Z,7.70
2018-11-05T05:59:22.051Z,7.00
2018-11-05T06:00:21.782Z,8.40
2018-11-05T06:01:21.747Z,8.90
2018-11-05T06:02:21.729Z,7.60
2018-11-05T06:03:21.703Z,8.30
2018-11-05T06:04:21.674Z,7.10
2018-11-05T06:05:21.641Z,7.90
2018-11-05T06:06:21.858Z,7.80
2018-11-05T06:07:21.609Z,7.30
2018-11-05T06:08:21.591Z,7.50
2018-11-05T06:09:21.549Z,6.70
2018-11-05T06:10:21.541Z,7.10
2018-11-05T06:11:21.509Z,7.50
2018-11-05T06:12:21.477Z,8.20
2018-11-05T06:13:21.453Z,7.80
2018-11-05T06:14:21.448Z,7.20
2018-11-05T06:15:21.414Z,7.90
2018-11-05T06:16:21.385Z,7.50
2018-11-05T06:17:21.373Z,7.60
2018-11-05T06:18:21.339Z,8.80
2018-11-05T06:19:21.322Z,8.90
2018-11-05T06:20:21.297Z,9.00
2018-11-05T06:21:21.353Z,8.50
2018-11-05T06:22:21.254Z,7.90
2018-11-05T06:23:21.228Z,8.20
2018-11-05T06:24:21.202Z,8.50
2018-11-05T06:25:21.182Z,8.70
2018-11-05T06:26:21.331Z,7.40
2018-11-05T06:27:21.133Z,8.20
2018-11-05T06:28:21.152Z,8.50
2018-11-05T06:29:21.086Z,9.40
2018-11-05T06:30:21.058Z,9.50
2018-11-05T06:31:21.035Z,9.50
2018-11-05T06:32:21.015Z,9.10
2018-11-05T06:33:20.991Z,8.40
2018-11-05T06:34:20.976Z,8.90
2018-11-05T06:35:21.045Z,9.40
2018-11-05T06:36:20.912Z,10.00
2018-11-05T06:37:20.896Z,9.50
2018-11-05T06:38:20.865Z,11.00
2018-11-05T06:39:20.872Z,10.10
2018-11-05T06:40:20.835Z,11.10
2018-11-05T06:41:20.998Z,9.70
2018-11-05T06:42:20.780Z,9.00
2018-11-05T06:43:20.750Z,9.20
2018-11-05T06:44:20.749Z,8.70
2018-11-05T06:45:20.738Z,9.30
2018-11-05T06:46:20.683Z,8.40
2018-11-05T06:47:20.651Z,9.50
2018-11-05T06:48:20.627Z,10.30
2018-11-05T06:49:20.611Z,9.50
2018-11-05T06:50:20.579Z,9.50
2018-11-05T06:51:20.567Z,9.40
2018-11-05T06:52:20.537Z,8.60
2018-11-05T06:53:20.519Z,9.10
2018-11-05T06:54:20.501Z,9.20
2018-11-05T06:55:20.478Z,9.70
2018-11-05T06:56:20.432Z,9.30
2018-11-05T06:57:20.423Z,9.50
2018-11-05T06:58:20.459Z,9.80
2018-11-05T06:59:20.373Z,9.20
2018-11-05T07:00:20.386Z,7.90
2018-11-05T07:01:20.316Z,9.10
2018-11-05T07:02:20.300Z,8.90
2018-11-05T07:03:20.271Z,8.60
2018-11-05T07:04:20.257Z,9.20
2018-11-05T07:05:20.228Z,8.70
2018-11-05T07:06:20.209Z,7.60
2018-11-05T07:07:20.171Z,9.30
2018-11-05T07:08:20.151Z,8.30
2018-11-05T07:09:20.131Z,8.60
2018-11-05T07:10:20.111Z,8.50
2018-11-05T07:11:20.147Z,8.00
2018-11-05T07:12:20.050Z,8.90
2018-11-05T07:13:20.044Z,7.60
2018-11-05T07:14:20.016Z,8.20
2018-11-05T07:15:19.991Z,9.20
2018-11-05T07:16:19.968Z,8.30
2018-11-05T07:17:19.952Z,9.20
2018-11-05T07:18:20.016Z,8.40
2018-11-05T07:19:20.133Z,8.90
2018-11-05T07:20:19.884Z,9.70
2018-11-05T07:21:19.846Z,9.30
2018-11-05T07:22:19.826Z,10.10
2018-11-05T07:23:19.797Z,9.10
2018-11-05T07:24:19.784Z,9.20
2018-11-05T07:25:19.753Z,9.30
2018-11-05T07:26:19.733Z,8.30
2018-11-05T07:27:19.709Z,10.00
2018-11-05T07:28:19.682Z,9.20
2018-11-05T07:29:19.664Z,8.40
2018-11-05T07:30:19.633Z,9.30
2018-11-05T07:31:19.610Z,8.50
2018-11-05T07:32:19.591Z,8.90
2018-11-05T07:33:19.585Z,7.70
2018-11-05T07:34:19.691Z,8.70
2018-11-05T07:35:19.510Z,8.60
2018-11-05T07:36:19.491Z,8.70
2018-11-05T07:37:19.460Z,9.40
2018-11-05T07:38:19.466Z,8.30
2018-11-05T07:39:19.413Z,8.40
2018-11-05T07:40:19.408Z,7.80
2018-11-05T07:41:19.368Z,8.40
2018-11-05T07:42:19.356Z,7.40
2018-11-05T07:43:19.331Z,7.70
2018-11-05T07:44:19.297Z,8.00
2018-11-05T07:45:19.292Z,8.10
2018-11-05T07:46:19.263Z,7.70
2018-11-05T07:47:19.230Z,8.20
2018-11-05T07:48:19.200Z,8.60
2018-11-05T07:49:19.175Z,7.70
2018-11-05T07:50:19.200Z,8.00
2018-11-05T07:51:19.132Z,8.40
2018-11-05T07:52:19.108Z,7.40
2018-11-05T07:53:19.088Z,7.80
2018-11-05T07:54:19.063Z,8.00
2018-11-05T07:55:19.039Z,7.60
2018-11-05T07:56:19.162Z,7.90
2018-11-05T07:57:18.988Z,7.90
2018-11-05T07:58:18.960Z,8.30
2018-11-05T07:59:18.927Z,7.30
2018-11-05T08:00:18.915Z,7.80
2018-11-05T08:01:18.893Z,7.10
2018-11-05T08:02:18.873Z,7.30
2018-11-05T08:03:18.844Z,7.40
2018-11-05T08:04:18.806Z,6.90
2018-11-05T08:05:18.780Z,7.70
2018-11-05T08:06:18.760Z,7.30
2018-11-05T08:07:18.750Z,6.90
2018-11-05T08:08:18.773Z,8.40
2018-11-05T08:09:18.704Z,8.00
2018-11-05T08:10:18.680Z,7.60
2018-11-05T08:11:18.654Z,7.80
2018-11-05T08:12:18.631Z,9.20
2018-11-05T08:13:18.593Z,8.10
2018-11-05T08:14:18.669Z,7.80
2018-11-05T08:15:18.555Z,7.50
2018-11-05T08:16:18.532Z,8.20
2018-11-05T08:17:18.508Z,7.70
2018-11-05T08:18:18.490Z,7.10
2018-11-05T08:19:18.462Z,6.50
2018-11-05T08:20:18.438Z,6.70
2018-11-05T08:21:18.420Z,7.70
2018-11-05T08:22:18.389Z,7.50
2018-11-05T08:23:18.369Z,6.50
2018-11-05T08:24:18.325Z,7.00
2018-11-05T08:25:18.308Z,6.80
2018-11-05T08:26:18.285Z,7.40
2018-11-05T08:27:18.276Z,6.60
2018-11-05T08:28:18.249Z,7.20
2018-11-05T08:29:18.224Z,7.70
2018-11-05T08:30:18.205Z,6.80
2018-11-05T08:31:18.179Z,7.20
2018-11-05T08:32:18.152Z,6.60
2018-11-05T08:33:18.132Z,7.20
2018-11-05T08:34:18.250Z,7.50
2018-11-05T08:35:18.068Z,7.30
2018-11-05T08:36:18.053Z,6.90
2018-11-05T08:37:18.036Z,7.60
2018-11-05T08:38:18.016Z,8.00
2018-11-05T08:39:17.992Z,8.00
2018-11-05T08:40:18.058Z,7.20
2018-11-05T08:41:17.941Z,7.10
2018-11-05T08:42:17.913Z,6.60
2018-11-05T08:43:17.891Z,8.40
2018-11-05T08:44:17.869Z,8.20
2018-11-05T08:45:17.844Z,7.90
2018-11-05T08:46:17.816Z,7.90
2018-11-05T08:47:17.795Z,8.00
2018-11-05T08:48:17.754Z,8.00
2018-11-05T08:49:17.735Z,6.80
2018-11-05T08:50:51.068Z,7.30
2018-11-05T08:51:18.161Z,7.30
2018-11-05T08:52:17.674Z,7.70
2018-11-05T08:53:17.651Z,7.30
2018-11-05T08:54:17.636Z,6.90
2018-11-05T08:55:17.605Z,7.60
2018-11-05T08:56:17.582Z,7.20
2018-11-05T08:57:17.559Z,7.90
2018-11-05T08:58:17.534Z,8.20
2018-11-05T08:59:17.511Z,8.10
2018-11-05T09:00:17.478Z,8.50
2018-11-05T09:01:17.458Z,8.00
2018-11-05T09:02:17.431Z,8.20
2018-11-05T09:03:17.413Z,8.80
2018-11-05T09:04:17.378Z,8.00
2018-11-05T09:05:17.522Z,8.10
2018-11-05T09:06:17.341Z,7.10
2018-11-05T09:07:17.312Z,8.10
2018-11-05T09:08:17.294Z,7.80
2018-11-05T09:09:17.267Z,7.70
2018-11-05T09:10:17.408Z,6.90
2018-11-05T09:11:17.645Z,7.50
2018-11-05T09:12:17.197Z,9.20
2018-11-05T09:13:17.178Z,8.40
2018-11-05T09:14:17.156Z,9.30
2018-11-05T09:15:17.134Z,9.00
2018-11-05T09:16:17.147Z,9.40
2018-11-05T09:17:17.085Z,10.20
2018-11-05T09:18:17.064Z,9.70
2018-11-05T09:19:17.048Z,8.70
2018-11-05T09:20:17.014Z,9.30
2018-11-05T09:21:16.986Z,9.80
2018-11-05T09:22:16.964Z,10.40
2018-11-05T09:23:16.947Z,9.90
2018-11-05T09:24:16.910Z,10.40
2018-11-05T09:25:16.892Z,9.80
2018-11-05T09:26:16.864Z,10.40
2018-11-05T09:27:16.831Z,10.70
2018-11-05T09:28:16.818Z,10.30
2018-11-05T09:29:16.799Z,10.20
2018-11-05T09:30:16.759Z,10.80
2018-11-05T09:31:16.752Z,10.30
2018-11-05T09:32:16.725Z,10.80
2018-11-05T09:33:16.702Z,10.60
2018-11-05T09:34:16.685Z,11.00
2018-11-05T09:35:16.659Z,10.80
2018-11-05T09:36:16.634Z,11.20
2018-11-05T09:37:16.613Z,12.10
2018-11-05T09:38:16.589Z,11.60
2018-11-05T09:39:16.562Z,11.50
2018-11-05T09:40:16.546Z,11.60
2018-11-05T09:41:16.517Z,11.10
2018-11-05T09:42:16.491Z,10.80
2018-11-05T09:43:16.467Z,12.00
2018-11-05T09:44:16.447Z,11.90
2018-11-05T09:45:16.431Z,11.00
2018-11-05T09:46:16.405Z,12.30
2018-11-05T09:47:16.381Z,11.70
2018-11-05T09:48:16.356Z,11.60
2018-11-05T09:49:16.331Z,13.20
2018-11-05T09:50:16.311Z,12.90
2018-11-05T09:51:16.279Z,12.00
2018-11-05T09:52:16.251Z,11.40
2018-11-05T09:53:16.239Z,10.40
2018-11-05T09:54:16.218Z,12.10
2018-11-05T09:55:16.202Z,12.20
2018-11-05T09:56:16.150Z,13.50
2018-11-05T09:57:16.274Z,11.60
2018-11-05T09:58:16.121Z,12.30
2018-11-05T09:59:16.102Z,11.20
2018-11-05T10:00:16.074Z,12.00
2018-11-05T10:01:16.035Z,11.10
2018-11-05T10:02:16.025Z,12.60
2018-11-05T10:03:16.193Z,13.00
2018-11-05T10:04:16.163Z,12.60
2018-11-05T10:05:16.119Z,12.40
2018-11-05T10:06:15.943Z,13.00
2018-11-05T10:07:15.912Z,13.00
2018-11-05T10:08:15.893Z,12.30
2018-11-05T10:09:15.856Z,12.60
2018-11-05T10:10:15.935Z,13.20
2018-11-05T10:11:15.828Z,14.30
2018-11-05T10:12:15.804Z,14.10
2018-11-05T10:13:15.774Z,13.50
2018-11-05T10:14:15.763Z,13.10
2018-11-05T10:15:15.730Z,13.50
2018-11-05T10:16:15.730Z,13.20
2018-11-05T10:17:15.685Z,12.80
2018-11-05T10:18:15.658Z,13.40
2018-11-05T10:19:15.638Z,13.40
2018-11-05T10:20:15.606Z,13.30
2018-11-05T10:21:15.589Z,12.10
2018-11-05T10:22:15.568Z,12.10
2018-11-05T10:23:15.550Z,13.30
2018-11-05T10:24:15.520Z,11.40
2018-11-05T10:25:15.591Z,11.60
2018-11-05T10:26:15.548Z,11.30
2018-11-05T10:27:15.459Z,11.80
2018-11-05T10:28:15.435Z,12.60
2018-11-05T10:29:15.405Z,12.50
2018-11-05T10:30:15.387Z,11.80
2018-11-05T10:31:15.363Z,12.80
2018-11-05T10:32:15.341Z,11.20
2018-11-05T10:33:15.328Z,11.50
2018-11-05T10:34:15.298Z,10.40
2018-11-05T10:35:15.273Z,10.60
2018-11-05T10:36:15.241Z,10.10
2018-11-05T10:37:15.236Z,11.30
2018-11-05T10:38:15.204Z,10.10
2018-11-05T10:39:15.187Z,11.00
2018-11-05T10:40:15.223Z,10.70
2018-11-05T10:41:15.148Z,10.70
2018-11-05T10:42:15.126Z,9.90
2018-11-05T10:43:15.101Z,10.30
2018-11-05T10:44:15.116Z,9.00
2018-11-05T10:45:15.040Z,10.10
2018-11-05T10:46:15.059Z,8.20
2018-11-05T10:47:15.013Z,8.50
2018-11-05T10:48:14.987Z,8.50
2018-11-05T10:49:14.976Z,8.40
2018-11-05T10:50:14.971Z,8.50
2018-11-05T10:51:15.065Z,7.80
2018-11-05T10:52:48.116Z,8.40
2018-11-05T10:53:14.888Z,7.40
2018-11-05T10:54:14.864Z,7.50
2018-11-05T10:55:14.851Z,7.00
2018-11-05T10:56:14.825Z,7.00
2018-11-05T10:57:14.799Z,7.50
2018-11-05T10:58:14.847Z,7.10
2018-11-05T10:59:14.744Z,7.60
2018-11-05T11:00:14.736Z,7.80
2018-11-05T11:01:14.712Z,7.80
2018-11-05T11:02:14.703Z,7.70
2018-11-05T11:03:14.682Z,6.50
2018-11-05T11:04:14.693Z,7.50
2018-11-05T11:05:14.622Z,7.50
2018-11-05T11:06:14.619Z,7.90
2018-11-05T11:07:14.598Z,8.00
2018-11-05T11:08:14.579Z,9.70
2018-11-05T11:09:14.559Z,9.20
2018-11-05T11:10:14.534Z,9.40
2018-11-05T11:11:14.513Z,11.00
2018-11-05T11:12:14.489Z,10.30
2018-11-05T11:13:14.473Z,11.40
2018-11-05T11:14:14.459Z,10.60
2018-11-05T11:15:14.514Z,10.70
2018-11-05T11:16:14.407Z,11.70
2018-11-05T11:17:14.390Z,10.60
2018-11-05T11:18:14.364Z,11.70
2018-11-05T11:19:14.343Z,11.20
2018-11-05T11:20:14.321Z,10.60
2018-11-05T11:21:14.303Z,11.30
2018-11-05T11:22:14.441Z,10.70
2018-11-05T11:23:14.263Z,11.40
2018-11-05T11:24:14.232Z,11.60
2018-11-05T11:25:14.220Z,11.60
2018-11-05T11:26:14.201Z,12.90
2018-11-05T11:27:14.177Z,11.40
2018-11-05T11:28:14.205Z,11.70
2018-11-05T11:29:14.324Z,11.60
2018-11-05T11:30:14.120Z,11.40
2018-11-05T11:31:14.109Z,12.50
2018-11-05T11:32:14.072Z,12.60
2018-11-05T11:33:14.043Z,11.80
2018-11-05T11:34:14.040Z,13.50
2018-11-05T11:35:14.024Z,13.00
2018-11-05T11:36:13.991Z,12.20
2018-11-05T11:37:14.162Z,12.50
2018-11-05T11:38:13.962Z,10.70
2018-11-05T11:39:13.929Z,10.30
2018-11-05T11:40:13.908Z,10.00
2018-11-05T11:41:13.893Z,10.60
2018-11-05T11:42:13.854Z,10.90
2018-11-05T11:43:13.846Z,10.70
2018-11-05T11:44:13.904Z,10.90
2018-11-05T11:45:13.805Z,10.10
2018-11-05T11:46:13.784Z,11.50
2018-11-05T11:47:13.757Z,9.80
2018-11-05T11:48:13.748Z,10.50
2018-11-05T11:49:13.710Z,11.10
2018-11-05T11:50:13.716Z,10.00
2018-11-05T11:51:13.689Z,9.70
2018-11-05T11:52:13.665Z,10.40
2018-11-05T11:53:13.701Z,11.50
2018-11-05T11:54:13.627Z,10.40
2018-11-05T11:55:13.615Z,11.20
2018-11-05T11:56:13.588Z,10.40
2018-11-05T11:57:13.571Z,10.90
2018-11-05T11:58:13.544Z,9.00
2018-11-05T11:59:13.568Z,10.00
2018-11-05T12:00:13.520Z,9.30
2018-11-05T12:01:13.488Z,9.90
2018-11-05T12:02:13.529Z,9.90
2018-11-05T12:03:13.480Z,9.20
2018-11-05T12:04:13.425Z,8.90
2018-11-05T12:05:13.551Z,9.10
2018-11-05T12:06:13.392Z,8.30
2018-11-05T12:07:13.354Z,8.60
2018-11-05T12:08:13.345Z,9.50
2018-11-05T12:09:13.321Z,9.70
2018-11-05T12:10:13.311Z,8.30
2018-11-05T12:11:13.283Z,8.80
2018-11-05T12:12:13.265Z,9.90
2018-11-05T12:13:13.243Z,8.60
2018-11-05T12:14:13.244Z,9.50
2018-11-05T12:15:13.199Z,10.00
2018-11-05T12:16:13.184Z,9.80
2018-11-05T12:17:13.175Z,9.20
2018-11-05T12:18:13.144Z,9.90
2018-11-05T12:19:13.125Z,10.20
2018-11-05T12:20:13.136Z,9.70
2018-11-05T12:21:13.086Z,9.60
2018-11-05T12:22:13.050Z,9.50
2018-11-05T12:23:13.043Z,9.50
2018-11-05T12:24:13.020Z,9.30
2018-11-05T12:25:13.000Z,8.80
2018-11-05T12:26:12.986Z,9.10
2018-11-05T12:27:12.963Z,9.00
2018-11-05T12:28:46.132Z,9.10
2018-11-05T12:29:12.922Z,9.00
2018-11-05T12:30:12.889Z,9.40
2018-11-05T12:31:12.877Z,8.80
2018-11-05T12:32:12.915Z,9.00
2018-11-05T12:33:12.845Z,8.40
2018-11-05T12:34:12.824Z,8.80
2018-11-05T12:35:12.791Z,9.00
2018-11-05T12:36:12.789Z,8.40
2018-11-05T12:37:12.761Z,9.30
2018-11-05T12:38:12.748Z,8.80
2018-11-05T12:39:12.727Z,9.30
2018-11-05T12:40:12.706Z,8.90
2018-11-05T12:41:12.674Z,8.20
2018-11-05T12:42:12.652Z,7.90
2018-11-05T12:43:12.631Z,7.60
2018-11-05T12:44:12.627Z,7.90
2018-11-05T12:45:12.605Z,8.40
2018-11-05T12:46:12.573Z,7.80
2018-11-05T12:47:12.569Z,7.50
2018-11-05T12:48:12.550Z,9.30
2018-11-05T12:49:12.531Z,8.40
2018-11-05T12:50:12.494Z,7.10
2018-11-05T12:51:12.481Z,8.40
2018-11-05T12:52:12.459Z,7.20
2018-11-05T12:53:12.449Z,7.00
2018-11-05T12:54:12.436Z,7.30
2018-11-05T12:55:12.422Z,7.30
2018-11-05T12:56:12.397Z,7.60
2018-11-05T12:57:12.385Z,8.60
2018-11-05T12:58:12.358Z,8.80
2018-11-05T12:59:12.347Z,8.50
2018-11-05T13:00:12.324Z,9.80
2018-11-05T13:01:12.301Z,8.80
2018-11-05T13:02:12.279Z,8.70
2018-11-05T13:03:12.265Z,8.80
2018-11-05T13:04:12.325Z,8.90
2018-11-05T13:05:12.207Z,8.00
2018-11-05T13:06:12.200Z,8.50
2018-11-05T13:07:12.200Z,8.20
2018-11-05T13:08:12.161Z,7.60
2018-11-05T13:09:12.138Z,7.50
2018-11-05T13:10:12.121Z,7.30
2018-11-05T13:11:12.086Z,7.30
2018-11-05T13:12:12.081Z,7.10
2018-11-05T13:13:12.063Z,7.40
2018-11-05T13:14:12.037Z,6.90
2018-11-05T13:15:12.061Z,7.20
2018-11-05T13:16:11.996Z,6.80
2018-11-05T13:17:11.979Z,6.40
2018-11-05T13:18:11.961Z,6.60
2018-11-05T13:19:11.940Z,6.30
2018-11-05T13:20:11.905Z,5.80
2018-11-05T13:21:11.897Z,6.50
2018-11-05T13:22:11.998Z,6.20
2018-11-05T13:23:11.859Z,6.90
2018-11-05T13:24:11.877Z,6.00
2018-11-05T13:25:11.809Z,6.40
2018-11-05T13:26:11.797Z,6.20
2018-11-05T13:27:11.803Z,6.40
2018-11-05T13:28:11.812Z,6.40
2018-11-05T13:29:11.739Z,6.10
2018-11-05T13:30:11.719Z,5.60
2018-11-05T13:31:11.692Z,5.00
2018-11-05T13:32:11.660Z,5.10
2018-11-05T13:33:11.656Z,6.00
2018-11-05T13:34:11.639Z,6.10
2018-11-05T13:35:11.618Z,5.90